createdAt,value
2023-02-11T00:01:49.742Z,6.55
2023-02-11T00:04:16.374Z,7.35
2023-02-11T00:06:43.123Z,8.40
2023-02-11T00:09:10.463Z,7.53
2023-02-11T00:11:37.034Z,7.65
2023-02-11T00:14:08.039Z,6.72
2023-02-11T00:16:35.143Z,7.55
2023-02-11T00:19:03.538Z,6.47
2023-02-11T00:21:30.349Z,7.28
2023-02-11T00:23:59.728Z,6.07
2023-02-11T00:26:32.316Z,5.90
2023-02-11T00:28:59.228Z,7.07
2023-02-11T00:31:26.636Z,8.00
2023-02-11T00:33:54.171Z,8.23
2023-02-11T00:36:26.667Z,6.13
2023-02-11T00:38:54.368Z,6.28
2023-02-11T00:41:21.499Z,8.68
2023-02-11T00:43:48.716Z,7.15
2023-02-11T00:46:15.712Z,7.13
2023-02-11T00:48:43.042Z,7.57
2023-02-11T00:51:10.100Z,8.38
2023-02-11T00:53:36.980Z,7.35
2023-02-11T00:56:04.150Z,8.75
2023-02-11T00:58:31.150Z,7.00
2023-02-11T01:00:57.864Z,7.80
2023-02-11T01:03:24.549Z,7.32
2023-02-11T01:05:51.552Z,8.65
2023-02-11T01:08:18.343Z,7.72
2023-02-11T01:10:45.021Z,7.50
2023-02-11T01:13:11.760Z,6.72
2023-02-11T01:15:38.295Z,4.43
2023-02-11T01:18:05.652Z,6.97
2023-02-11T01:20:32.320Z,4.88
2023-02-11T01:22:58.895Z,6.82
2023-02-11T01:25:25.446Z,5.30
2023-02-11T01:27:52.071Z,6.07
2023-02-11T01:30:18.654Z,5.15
2023-02-11T01:32:45.181Z,6.45
2023-02-11T01:35:11.939Z,5.57
2023-02-11T01:37:38.601Z,6.00
2023-02-11T01:40:08.104Z,4.78
2023-02-11T01:42:34.768Z,7.50
2023-02-11T01:45:21.932Z,7.50
2023-02-11T01:47:48.532Z,5.07
2023-02-11T01:50:15.201Z,6.90
2023-02-11T01:52:42.631Z,6.50
2023-02-11T01:55:31.784Z,8.88
2023-02-11T01:58:02.902Z,6.05
2023-02-11T02:00:36.251Z,6.60
2023-02-11T02:03:31.418Z,6.40
2023-02-11T02:06:06.032Z,5.30
2023-02-11T02:08:46.949Z,7.05
2023-02-11T02:11:13.555Z,6.85
2023-02-11T02:13:40.122Z,6.13
2023-02-11T02:16:12.652Z,9.40
2023-02-11T02:18:53.081Z,6.57
2023-02-11T02:21:30.178Z,7.10
2023-02-11T02:24:15.470Z,8.63
2023-02-11T02:27:13.125Z,9.82
2023-02-11T02:29:45.504Z,9.20
2023-02-11T02:32:40.305Z,9.07
2023-02-11T02:35:14.792Z,9.00
2023-02-11T02:37:50.708Z,9.80
2023-02-11T02:40:23.760Z,10.38
2023-02-11T02:42:51.423Z,10.00
2023-02-11T02:45:19.300Z,9.07
2023-02-11T02:47:45.854Z,5.88
2023-02-11T02:50:16.751Z,5.10
2023-02-11T02:53:02.058Z,8.63
2023-02-11T02:55:37.507Z,7.55
2023-02-11T02:58:32.946Z,5.80
2023-02-11T03:01:04.903Z,6.63
2023-02-11T03:03:37.651Z,9.52
2023-02-11T03:06:22.672Z,8.88
2023-02-11T03:08:57.095Z,10.32
2023-02-11T03:11:25.872Z,6.55
2023-02-11T03:13:54.605Z,5.55
2023-02-11T03:16:27.393Z,9.60
2023-02-11T03:19:03.391Z,9.65
2023-02-11T03:21:33.398Z,9.45
2023-02-11T03:24:05.875Z,10.32
2023-02-11T03:26:48.606Z,10.55
2023-02-11T03:29:43.167Z,11.38
2023-02-11T03:34:52.934Z,10.85
2023-02-11T03:37:31.527Z,10.45
2023-02-11T03:40:03.559Z,12.32
2023-02-11T03:42:39.012Z,10.57
2023-02-11T03:45:10.177Z,11.07
2023-02-11T03:47:39.982Z,10.40
2023-02-11T03:50:08.978Z,10.30
2023-02-11T03:52:37.903Z,5.63
2023-02-11T03:55:11.248Z,10.85
2023-02-11T03:57:38.332Z,9.18
2023-02-11T04:00:06.529Z,6.45
2023-02-11T04:02:36.100Z,10.15
2023-02-11T04:05:03.256Z,9.68
2023-02-11T04:07:30.074Z,5.88
2023-02-11T04:09:56.684Z,9.90
2023-02-11T04:12:23.247Z,8.63
2023-02-11T04:14:49.854Z,7.13
2023-02-11T04:17:16.899Z,6.68
2023-02-11T04:19:43.441Z,9.95
2023-02-11T04:22:10.287Z,9.50
2023-02-11T04:24:36.828Z,10.45
2023-02-11T04:27:03.523Z,10.00
2023-02-11T04:29:30.346Z,7.75
2023-02-11T04:31:56.968Z,10.63
2023-02-11T04:34:24.565Z,9.65
2023-02-11T04:36:51.265Z,10.02
2023-02-11T04:39:18.022Z,11.32
2023-02-11T04:41:44.661Z,9.32
2023-02-11T04:44:11.242Z,9.48
2023-02-11T04:46:37.807Z,10.10
2023-02-11T04:49:04.530Z,10.10
2023-02-11T04:51:31.237Z,9.95
2023-02-11T04:53:57.784Z,6.07
2023-02-11T04:56:24.380Z,8.90
2023-02-11T04:58:50.990Z,9.30
2023-02-11T05:01:17.740Z,10.45
2023-02-11T05:03:44.932Z,10.05
2023-02-11T05:06:12.199Z,8.95
2023-02-11T05:08:39.865Z,6.95
2023-02-11T05:11:06.603Z,9.88
2023-02-11T05:13:33.437Z,8.82
2023-02-11T05:16:00.200Z,6.13
2023-02-11T05:18:26.760Z,11.55
2023-02-11T05:20:53.355Z,11.45
2023-02-11T05:23:20.087Z,8.32
2023-02-11T05:25:46.631Z,9.95
2023-02-11T05:28:13.157Z,6.03
2023-02-11T05:30:39.854Z,11.07
2023-02-11T05:33:06.501Z,9.15
2023-02-11T05:35:33.039Z,9.27
2023-02-11T05:37:59.559Z,9.18
2023-02-11T05:40:26.192Z,9.68
2023-02-11T05:42:52.769Z,10.50
2023-02-11T05:45:19.305Z,8.50
2023-02-11T05:47:45.909Z,8.50
2023-02-11T05:50:12.638Z,10.30
2023-02-11T05:52:39.257Z,8.45
2023-02-11T05:55:06.490Z,6.05
2023-02-11T05:57:33.037Z,9.68
2023-02-11T05:59:59.590Z,9.68
2023-02-11T06:02:26.171Z,6.75
2023-02-11T06:04:52.783Z,6.57
2023-02-11T06:07:19.804Z,9.80
2023-02-11T06:09:47.475Z,9.27
2023-02-11T06:12:13.983Z,5.95
2023-02-11T06:14:40.612Z,8.27
2023-02-11T06:17:07.303Z,7.60
2023-02-11T06:19:34.269Z,8.68
2023-02-11T06:22:00.863Z,10.13
2023-02-11T06:24:50.956Z,6.55
2023-02-11T06:27:14.214Z,9.27
2023-02-11T06:29:40.733Z,8.55
2023-02-11T06:32:10.104Z,8.55
2023-02-11T06:34:42.573Z,5.32
2023-02-11T06:37:09.102Z,6.50
2023-02-11T06:39:35.624Z,10.35
2023-02-11T06:42:02.177Z,9.63
2023-02-11T06:44:28.687Z,10.57
2023-02-11T06:46:55.307Z,10.20
2023-02-11T06:49:21.919Z,9.63
2023-02-11T06:51:48.472Z,9.95
2023-02-11T06:54:15.083Z,8.10
2023-02-11T06:56:41.832Z,11.15
2023-02-11T06:59:08.980Z,16.75
2023-02-11T07:01:35.662Z,11.00
2023-02-11T07:04:02.238Z,9.07
2023-02-11T07:06:28.958Z,7.88
2023-02-11T07:08:56.552Z,8.57
2023-02-11T07:11:25.965Z,9.98
2023-02-11T07:13:54.686Z,14.07
2023-02-11T07:16:21.419Z,9.00
2023-02-11T07:18:49.021Z,9.85
2023-02-11T07:21:19.408Z,7.72
2023-02-11T07:23:47.052Z,8.23
2023-02-11T07:26:15.948Z,6.95
2023-02-11T07:28:43.546Z,7.13
2023-02-11T07:31:18.938Z,6.25
2023-02-11T07:33:48.473Z,14.60
2023-02-11T07:36:16.473Z,10.35
2023-02-11T07:38:43.904Z,7.00
2023-02-11T07:41:12.904Z,8.75
2023-02-11T07:43:40.289Z,9.23
2023-02-11T07:46:10.131Z,7.80
2023-02-11T07:48:37.654Z,12.00
2023-02-11T07:51:13.674Z,9.55
2023-02-11T07:53:41.111Z,8.80
2023-02-11T07:56:08.776Z,11.25
2023-02-11T07:58:35.803Z,8.38
2023-02-11T08:01:07.405Z,10.52
2023-02-11T08:03:35.182Z,8.95
2023-02-11T08:06:13.150Z,7.72
2023-02-11T08:08:40.449Z,9.02
2023-02-11T08:11:13.227Z,8.05
2023-02-11T08:13:40.072Z,7.45
2023-02-11T08:16:08.000Z,9.25
2023-02-11T08:18:35.443Z,8.18
2023-02-11T08:21:06.837Z,7.25
2023-02-11T08:23:33.831Z,10.65
2023-02-11T08:26:13.170Z,8.77
2023-02-11T08:28:40.980Z,9.63
2023-02-11T08:31:13.842Z,11.10
2023-02-11T08:33:41.110Z,10.30
2023-02-11T08:36:16.774Z,9.50
2023-02-11T08:38:44.059Z,10.80
2023-02-11T08:41:11.401Z,9.82
2023-02-11T08:43:41.674Z,9.95
2023-02-11T08:46:10.056Z,7.93
2023-02-11T08:48:36.636Z,10.23
2023-02-11T08:51:11.552Z,10.38
2023-02-11T08:53:39.281Z,10.13
2023-02-11T08:56:06.480Z,11.60
2023-02-11T08:58:33.374Z,12.13
2023-02-11T09:01:00.108Z,9.27
2023-02-11T09:03:26.684Z,8.70
2023-02-11T09:05:53.444Z,8.20
2023-02-11T09:08:21.062Z,8.18
2023-02-11T09:10:47.976Z,10.43
2023-02-11T09:13:14.812Z,9.05
2023-02-11T09:15:45.532Z,12.65
2023-02-11T09:18:12.206Z,13.05
2023-02-11T09:20:38.834Z,10.95
2023-02-11T09:23:05.384Z,9.05
2023-02-11T09:25:31.940Z,11.60
2023-02-11T09:27:58.619Z,10.13
2023-02-11T09:30:25.186Z,9.82
2023-02-11T09:32:51.748Z,9.55
2023-02-11T09:35:18.322Z,8.23
2023-02-11T09:37:44.886Z,10.10
2023-02-11T09:40:12.969Z,10.07
2023-02-11T09:42:47.693Z,9.38
2023-02-11T09:45:26.743Z,6.85
2023-02-11T09:48:00.430Z,8.30
2023-02-11T09:53:06.736Z,7.72
2023-02-11T09:55:38.048Z,9.00
2023-02-11T09:58:12.004Z,10.95
2023-02-11T10:00:45.101Z,8.32
2023-02-11T10:03:46.728Z,11.02
2023-02-11T10:06:20.127Z,8.38
2023-02-11T10:09:06.949Z,8.15
2023-02-11T10:11:57.814Z,9.70
2023-02-11T10:14:42.495Z,10.13
2023-02-11T10:17:36.920Z,8.98
2023-02-11T10:22:55.724Z,9.15
2023-02-11T10:25:27.102Z,8.13
2023-02-11T10:27:58.024Z,8.00
2023-02-11T10:30:31.185Z,8.48
2023-02-11T10:33:04.369Z,9.85
2023-02-11T10:35:31.949Z,8.63
2023-02-11T10:37:59.685Z,8.73
2023-02-11T10:40:29.264Z,9.27
2023-02-11T10:43:00.810Z,7.20
2023-02-11T10:45:27.276Z,7.32
2023-02-11T10:47:55.245Z,9.18
2023-02-11T10:50:34.924Z,9.88
2023-02-11T10:53:21.605Z,8.90
2023-02-11T10:55:57.312Z,8.80
2023-02-11T10:58:30.757Z,6.43
2023-02-11T11:01:00.135Z,6.65
2023-02-11T11:03:37.032Z,6.07
2023-02-11T11:06:09.453Z,7.88
2023-02-11T11:08:49.241Z,7.18
2023-02-11T11:11:18.613Z,6.03
2023-02-11T11:13:54.324Z,6.78
2023-02-11T11:16:51.872Z,5.45
2023-02-11T11:19:25.940Z,7.13
2023-02-11T11:21:54.851Z,5.47
2023-02-11T11:24:31.255Z,4.93
2023-02-11T11:27:01.753Z,5.68
2023-02-11T11:29:39.583Z,6.43
2023-02-11T11:32:20.750Z,5.50
2023-02-11T11:34:54.099Z,4.70
2023-02-11T11:37:25.521Z,5.55
2023-02-11T11:40:09.824Z,4.80
2023-02-11T11:42:38.600Z,4.82
2023-02-11T11:45:19.780Z,5.78
2023-02-11T11:48:00.626Z,7.82
2023-02-11T11:50:40.145Z,5.05
2023-02-11T11:53:21.154Z,4.80
2023-02-11T11:55:53.608Z,4.75
2023-02-11T11:58:23.478Z,5.70
2023-02-11T12:00:55.954Z,5.65
2023-02-11T12:03:40.927Z,5.10
2023-02-11T12:06:30.277Z,4.70
2023-02-11T12:09:19.881Z,4.63
2023-02-11T12:12:24.030Z,4.90
2023-02-11T12:15:05.915Z,6.72
2023-02-11T12:18:13.928Z,6.47
2023-02-11T12:20:59.960Z,5.38
2023-02-11T12:23:37.319Z,5.68
2023-02-11T12:26:03.786Z,6.00
2023-02-11T12:28:39.421Z,6.68
2023-02-11T12:31:29.184Z,6.15
2023-02-11T12:34:18.361Z,6.35
2023-02-11T12:36:55.413Z,5.85
2023-02-11T12:39:38.175Z,5.43
2023-02-11T12:42:38.574Z,6.47
2023-02-11T12:45:11.044Z,5.47
2023-02-11T12:48:13.105Z,4.78
2023-02-11T12:50:59.149Z,5.05
2023-02-11T12:53:51.779Z,4.68
2023-02-11T12:56:31.296Z,5.68
2023-02-11T12:59:00.353Z,5.30
2023-02-11T13:01:33.780Z,6.22
2023-02-11T13:04:16.033Z,7.05
2023-02-11T13:06:48.558Z,5.75
2023-02-11T13:09:22.449Z,5.22
2023-02-11T13:11:53.794Z,6.75
2023-02-11T13:14:35.534Z,6.25
2023-02-11T13:17:16.181Z,5.72
2023-02-11T13:19:50.680Z,6.88
2023-02-11T13:22:24.249Z,7.45
2023-02-11T13:24:56.591Z,7.65
2023-02-11T13:27:51.196Z,7.80
2023-02-11T13:30:29.381Z,7.80
2023-02-11T13:32:56.019Z,7.45
2023-02-11T13:35:45.932Z,6.28
2023-02-11T13:38:27.607Z,6.47
2023-02-11T13:41:03.046Z,6.03
2023-02-11T13:43:34.482Z,6.32
2023-02-11T13:46:10.596Z,4.47
2023-02-11T13:48:49.962Z,4.15
2023-02-11T13:51:19.371Z,5.55
2023-02-11T13:53:58.183Z,4.97
2023-02-11T13:56:30.623Z,4.78
2023-02-11T13:59:01.874Z,5.72
2023-02-11T14:02:07.716Z,6.78
2023-02-11T14:04:53.178Z,6.15
2023-02-11T14:07:50.414Z,5.07
2023-02-11T14:10:41.730Z,6.65
2023-02-11T14:13:27.583Z,6.57
2023-02-11T14:16:13.552Z,7.28
2023-02-11T14:18:49.006Z,6.07
2023-02-11T14:21:34.165Z,6.22
2023-02-11T14:24:05.137Z,6.25
2023-02-11T14:26:53.628Z,6.15
2023-02-11T14:29:32.484Z,4.97
2023-02-11T14:31:59.084Z,4.50
2023-02-11T14:34:46.901Z,6.25
2023-02-11T14:37:38.266Z,6.60
2023-02-11T14:40:17.826Z,5.13
2023-02-11T14:42:45.319Z,5.47
2023-02-11T14:45:19.835Z,5.97
2023-02-11T14:47:59.386Z,7.18
2023-02-11T14:50:44.974Z,6.63
2023-02-11T14:53:24.274Z,6.97
2023-02-11T14:55:53.547Z,5.05
2023-02-11T14:58:24.070Z,3.13
2023-02-11T15:01:01.059Z,4.28
2023-02-11T15:03:37.686Z,6.25
2023-02-11T15:06:12.482Z,7.65
2023-02-11T15:08:45.752Z,8.10
2023-02-11T15:11:15.683Z,5.32
2023-02-11T15:13:49.724Z,6.30
2023-02-11T15:16:20.810Z,4.35
2023-02-11T15:18:51.836Z,3.88
2023-02-11T15:21:24.691Z,4.03
2023-02-11T15:23:57.213Z,4.20
2023-02-11T15:26:23.866Z,3.42
2023-02-11T15:28:52.134Z,3.80
2023-02-11T15:31:21.608Z,3.83
2023-02-11T15:33:48.322Z,4.60
2023-02-11T15:36:16.769Z,3.63
2023-02-11T15:38:43.608Z,4.47
2023-02-11T15:41:34.721Z,3.42
2023-02-11T15:44:01.294Z,3.92
2023-02-11T15:46:36.688Z,4.97
2023-02-11T15:49:03.803Z,4.50
2023-02-11T15:51:34.617Z,4.75
2023-02-11T15:54:15.302Z,5.45
2023-02-11T15:56:44.354Z,4.60
2023-02-11T15:59:23.969Z,5.07
2023-02-11T16:01:50.827Z,6.20
2023-02-11T16:04:20.807Z,5.55
2023-02-11T16:06:48.193Z,5.90
2023-02-11T16:09:14.634Z,6.28
2023-02-11T16:12:18.966Z,4.85
2023-02-11T16:14:45.533Z,5.05
2023-02-11T16:17:29.470Z,5.57
2023-02-11T16:19:56.339Z,4.93
2023-02-11T16:22:26.399Z,4.65
2023-02-11T16:24:57.321Z,4.75
2023-02-11T16:27:31.915Z,5.13
2023-02-11T16:29:58.906Z,5.82
2023-02-11T16:32:29.770Z,5.22
2023-02-11T16:34:59.099Z,5.45
2023-02-11T16:37:27.131Z,4.93
2023-02-11T16:39:54.634Z,5.18
2023-02-11T16:42:21.236Z,5.28
2023-02-11T16:44:47.778Z,5.10
2023-02-11T16:47:24.599Z,4.85
2023-02-11T16:49:51.474Z,5.65
2023-02-11T16:52:19.863Z,5.10
2023-02-11T16:54:46.860Z,4.60
2023-02-11T16:57:18.778Z,5.53
2023-02-11T16:59:46.983Z,5.38
2023-02-11T17:02:29.265Z,4.80
2023-02-11T17:04:59.556Z,4.97
2023-02-11T17:07:26.576Z,4.60
2023-02-11T17:09:53.215Z,5.03
2023-02-11T17:12:21.030Z,4.50
2023-02-11T17:14:47.736Z,9.77
2023-02-11T17:17:14.443Z,4.32
2023-02-11T17:19:41.068Z,4.38
2023-02-11T17:22:08.228Z,4.57
2023-02-11T17:24:34.783Z,4.28
2023-02-11T17:27:01.336Z,4.53
2023-02-11T17:29:28.058Z,4.80
2023-02-11T17:31:54.782Z,4.97
2023-02-11T17:34:23.006Z,4.38
2023-02-11T17:36:49.646Z,5.05
2023-02-11T17:39:16.573Z,5.18
2023-02-11T17:41:43.127Z,4.68
2023-02-11T17:44:12.453Z,4.63
2023-02-11T17:46:39.187Z,5.07
2023-02-11T17:49:06.418Z,4.72
2023-02-11T17:51:35.899Z,4.78
2023-02-11T17:54:05.619Z,3.53
2023-02-11T17:56:33.560Z,4.88
2023-02-11T17:59:02.335Z,4.80
2023-02-11T18:01:30.547Z,4.90
2023-02-11T18:03:57.553Z,5.38
2023-02-11T18:06:24.243Z,4.45
2023-02-11T18:08:50.780Z,5.18
2023-02-11T18:11:17.780Z,5.00
2023-02-11T18:13:45.377Z,4.38
2023-02-11T18:16:16.088Z,4.85
2023-02-11T18:18:43.590Z,4.75
2023-02-11T18:21:15.265Z,4.65
2023-02-11T18:23:41.865Z,4.63
2023-02-11T18:26:09.981Z,5.15
2023-02-11T18:28:37.003Z,4.50
2023-02-11T18:31:07.911Z,6.03
2023-02-11T18:33:36.315Z,4.35
2023-02-11T18:36:07.332Z,4.65
2023-02-11T18:38:34.400Z,5.00
2023-02-11T18:41:01.142Z,4.05
2023-02-11T18:43:31.684Z,4.43
2023-02-11T18:45:58.392Z,5.00
2023-02-11T18:48:28.592Z,4.68
2023-02-11T18:50:55.647Z,6.15
2023-02-11T18:53:23.130Z,6.18
2023-02-11T18:55:50.007Z,5.78
2023-02-11T18:58:17.132Z,6.18
2023-02-11T19:00:46.347Z,5.70
2023-02-11T19:03:12.997Z,5.35
2023-02-11T19:05:44.120Z,4.35
2023-02-11T19:08:10.876Z,5.53
2023-02-11T19:10:45.984Z,5.53
2023-02-11T19:13:13.089Z,5.20
2023-02-11T19:15:44.476Z,4.68
2023-02-11T19:18:12.554Z,6.25
2023-02-11T19:20:40.416Z,3.85
2023-02-11T19:23:07.508Z,5.65
2023-02-11T19:25:34.611Z,6.47
2023-02-11T19:28:01.487Z,6.07
2023-02-11T19:30:28.185Z,6.18
2023-02-11T19:32:57.205Z,6.32
2023-02-11T19:35:24.816Z,5.57
2023-02-11T19:37:51.354Z,6.00
2023-02-11T19:40:19.219Z,6.63
2023-02-11T19:42:45.856Z,6.00
2023-02-11T19:45:12.665Z,6.63
2023-02-11T19:47:39.430Z,6.82
2023-02-11T19:50:06.621Z,6.35
2023-02-11T19:52:33.221Z,5.43
2023-02-11T19:55:00.472Z,7.07
2023-02-11T19:57:27.178Z,6.88
2023-02-11T19:59:55.048Z,4.82
2023-02-11T20:02:21.674Z,6.53
2023-02-11T20:04:48.569Z,6.40
2023-02-11T20:07:15.211Z,6.15
2023-02-11T20:09:42.639Z,7.50
2023-02-11T20:12:10.414Z,6.32
2023-02-11T20:14:37.010Z,6.25
2023-02-11T20:17:03.816Z,6.05
2023-02-11T20:19:30.766Z,6.43
2023-02-11T20:21:57.356Z,6.50
2023-02-11T20:24:25.489Z,5.63
2023-02-11T20:26:55.510Z,5.78
2023-02-11T20:29:22.745Z,7.00
2023-02-11T20:31:50.135Z,4.85
2023-02-11T20:34:18.031Z,7.07
2023-02-11T20:36:51.610Z,6.40
2023-02-11T20:39:21.901Z,7.30
2023-02-11T20:41:49.323Z,7.35
2023-02-11T20:44:16.184Z,5.90
2023-02-11T20:46:47.903Z,6.35
2023-02-11T20:49:16.500Z,6.95
2023-02-11T20:51:43.395Z,6.72
2023-02-11T20:54:14.931Z,6.15
2023-02-11T20:56:41.650Z,6.63
2023-02-11T20:59:08.562Z,6.18
2023-02-11T21:01:43.292Z,6.47
2023-02-11T21:04:18.706Z,7.07
2023-02-11T21:06:49.158Z,6.88
2023-02-11T21:09:19.813Z,6.43
2023-02-11T21:11:47.300Z,6.78
2023-02-11T21:14:13.879Z,6.20
2023-02-11T21:16:41.033Z,5.40
2023-02-11T21:19:07.707Z,7.60
2023-02-11T21:21:38.181Z,6.80
2023-02-11T21:24:08.457Z,6.53
2023-02-11T21:26:35.606Z,6.88
2023-02-11T21:29:04.067Z,6.30
2023-02-11T21:31:33.341Z,6.97
2023-02-11T21:34:00.044Z,6.97
2023-02-11T21:36:28.315Z,6.38
2023-02-11T21:38:55.008Z,6.63
2023-02-11T21:41:22.785Z,4.45
2023-02-11T21:43:50.357Z,5.90
2023-02-11T21:46:17.936Z,7.45
2023-02-11T21:48:44.519Z,6.10
2023-02-11T21:51:17.625Z,6.78
2023-02-11T21:53:44.924Z,6.95
2023-02-11T21:56:14.070Z,6.25
2023-02-11T21:58:40.747Z,5.32
2023-02-11T22:01:13.141Z,6.85
2023-02-11T22:03:39.850Z,6.07
2023-02-11T22:06:12.594Z,7.13
2023-02-11T22:08:39.821Z,6.72
2023-02-11T22:11:08.602Z,6.75
2023-02-11T22:13:36.036Z,6.68
2023-02-11T22:16:05.615Z,6.38
2023-02-11T22:18:32.603Z,6.38
2023-02-11T22:21:05.394Z,6.45
2023-02-11T22:23:32.232Z,7.68
2023-02-11T22:26:03.260Z,6.72
2023-02-11T22:28:30.147Z,5.97
2023-02-11T22:30:58.204Z,7.05
2023-02-11T22:33:25.889Z,7.35
2023-02-11T22:36:04.420Z,7.57
2023-02-11T22:38:31.860Z,5.82
2023-02-11T22:40:59.704Z,5.68
2023-02-11T22:43:27.800Z,6.38
2023-02-11T22:45:56.463Z,7.88
2023-02-11T22:48:23.422Z,7.38
2023-02-11T22:50:50.023Z,5.85
2023-02-11T22:53:16.746Z,5.85
2023-02-11T22:55:43.336Z,6.78
2023-02-11T22:58:09.918Z,6.82
2023-02-11T23:00:40.673Z,6.30
2023-02-11T23:03:08.573Z,9.35
2023-02-11T23:05:42.155Z,7.30
2023-02-11T23:08:11.037Z,6.45
2023-02-11T23:10:39.718Z,6.82
2023-02-11T23:13:07.882Z,8.13
2023-02-11T23:15:38.412Z,7.57
2023-02-11T23:18:05.225Z,7.18
2023-02-11T23:20:34.417Z,8.35
2023-02-11T23:23:00.964Z,7.38
2023-02-11T23:25:27.539Z,8.35
2023-02-11T23:27:54.169Z,8.27
2023-02-11T23:30:21.874Z,8.73
2023-02-11T23:32:49.338Z,9.35
2023-02-11T23:35:22.086Z,7.68
2023-02-11T23:37:50.360Z,9.15
2023-02-11T23:40:17.438Z,7.97
2023-02-11T23:42:44.130Z,7.32
2023-02-11T23:45:10.786Z,7.95
2023-02-11T23:47:37.406Z,6.32
2023-02-11T23:50:04.144Z,10.13
2023-02-11T23:52:30.697Z,7.32
2023-02-11T23:54:57.240Z,8.32
2023-02-11T23:57:23.836Z,9.63
2023-02-11T23:59:50.738Z,7.88
